createdAt,value
2023-04-29T00:01:56.002Z,8.10
2023-04-29T00:04:23.024Z,8.10
2023-04-29T00:06:49.950Z,8.10
2023-04-29T00:09:16.854Z,8.10
2023-04-29T00:11:43.706Z,8.10
2023-04-29T00:14:10.578Z,8.10
2023-04-29T00:16:37.465Z,8.10
2023-04-29T00:19:04.413Z,8.10
2023-04-29T00:21:31.347Z,8.10
2023-04-29T00:23:58.198Z,8.10
2023-04-29T00:26:25.131Z,8.10
2023-04-29T00:28:52.006Z,8.10
2023-04-29T00:31:18.870Z,8.10
2023-04-29T00:33:45.686Z,8.10
2023-04-29T00:36:12.549Z,8.10
2023-04-29T00:38:39.421Z,8.10
2023-04-29T00:41:06.816Z,8.10
2023-04-29T00:43:33.675Z,8.10
2023-04-29T00:46:00.610Z,8.10
2023-04-29T00:48:27.556Z,8.00
2023-04-29T00:50:54.447Z,8.10
2023-04-29T00:53:21.787Z,8.00
2023-04-29T00:55:50.695Z,8.00
2023-04-29T00:58:18.921Z,8.00
2023-04-29T01:00:46.450Z,8.00
2023-04-29T01:03:13.971Z,8.00
2023-04-29T01:05:41.000Z,8.60
2023-04-29T01:08:22.945Z,8.00
2023-04-29T01:10:57.030Z,7.90
2023-04-29T01:13:35.393Z,7.90
2023-04-29T01:16:11.366Z,7.90
2023-04-29T01:18:43.533Z,7.90
2023-04-29T01:21:10.391Z,7.90
2023-04-29T01:23:37.297Z,7.90
2023-04-29T01:26:04.332Z,7.90
2023-04-29T01:28:47.918Z,7.90
2023-04-29T01:31:41.966Z,7.80
2023-04-29T01:34:10.617Z,7.80
2023-04-29T01:36:44.527Z,7.80
2023-04-29T01:39:43.637Z,7.80
2023-04-29T01:42:44.148Z,7.90
2023-04-29T01:45:15.350Z,7.80
2023-04-29T01:47:43.084Z,7.80
2023-04-29T01:50:10.508Z,7.80
2023-04-29T01:52:37.430Z,7.80
2023-04-29T01:55:05.007Z,7.80
2023-04-29T01:57:31.945Z,7.80
2023-04-29T01:59:58.853Z,7.80
2023-04-29T02:02:25.812Z,7.80
2023-04-29T02:04:52.827Z,7.70
2023-04-29T02:07:19.847Z,7.70
2023-04-29T02:09:46.732Z,7.70
2023-04-29T02:12:13.609Z,7.70
2023-04-29T02:14:40.518Z,7.70
2023-04-29T02:17:07.407Z,7.70
2023-04-29T02:19:34.318Z,7.70
2023-04-29T02:22:01.207Z,7.80
2023-04-29T02:24:28.093Z,7.70
2023-04-29T02:26:54.962Z,7.70
2023-04-29T02:29:21.850Z,8.30
2023-04-29T02:31:48.742Z,7.70
2023-04-29T02:34:15.671Z,7.70
2023-04-29T02:36:42.556Z,7.70
2023-04-29T02:39:09.458Z,7.70
2023-04-29T02:41:36.646Z,7.70
2023-04-29T02:44:03.518Z,7.70
2023-04-29T02:46:30.444Z,7.80
2023-04-29T02:48:57.354Z,7.80
2023-04-29T02:51:24.306Z,7.80
2023-04-29T02:53:51.165Z,7.80
2023-04-29T02:56:18.042Z,7.80
2023-04-29T02:58:44.903Z,7.80
2023-04-29T03:01:11.784Z,7.90
2023-04-29T03:03:38.804Z,7.80
2023-04-29T03:06:05.892Z,7.90
2023-04-29T03:08:32.771Z,7.90
2023-04-29T03:10:59.650Z,7.90
2023-04-29T03:13:26.512Z,7.90
2023-04-29T03:15:53.362Z,7.90
2023-04-29T03:18:20.227Z,7.90
2023-04-29T03:20:47.092Z,7.90
2023-04-29T03:23:14.009Z,7.90
2023-04-29T03:25:40.938Z,7.90
2023-04-29T03:28:07.944Z,7.90
2023-04-29T03:30:34.832Z,8.00
2023-04-29T03:33:01.823Z,8.10
2023-04-29T03:35:28.771Z,8.00
2023-04-29T03:37:55.616Z,8.10
2023-04-29T03:40:22.474Z,8.00
2023-04-29T03:42:49.475Z,8.10
2023-04-29T03:45:16.379Z,8.10
2023-04-29T03:47:43.301Z,8.10
2023-04-29T03:50:10.442Z,8.10
2023-04-29T03:52:37.364Z,8.20
2023-04-29T03:55:04.543Z,8.10
2023-04-29T03:57:32.016Z,8.10
2023-04-29T03:59:58.898Z,8.10
2023-04-29T04:02:26.012Z,8.20
2023-04-29T04:04:53.147Z,8.20
2023-04-29T04:07:20.167Z,8.10
2023-04-29T04:09:47.008Z,8.10
2023-04-29T04:12:13.910Z,8.10
2023-04-29T04:14:40.782Z,8.10
2023-04-29T04:17:07.659Z,8.10
2023-04-29T04:19:34.519Z,8.20
2023-04-29T04:22:04.220Z,8.20
2023-04-29T04:24:31.060Z,8.10
2023-04-29T04:26:57.934Z,8.10
2023-04-29T04:29:24.840Z,8.10
2023-04-29T04:31:51.720Z,8.10
2023-04-29T04:34:18.590Z,8.10
2023-04-29T04:36:45.449Z,8.10
2023-04-29T04:39:12.294Z,8.00
2023-04-29T04:41:39.540Z,8.10
2023-04-29T04:44:06.442Z,8.10
2023-04-29T04:46:33.313Z,8.10
2023-04-29T04:49:00.202Z,8.10
2023-04-29T04:51:27.195Z,8.10
2023-04-29T04:53:54.061Z,8.10
2023-04-29T04:56:20.908Z,8.10
2023-04-29T04:58:47.754Z,8.10
2023-04-29T05:01:14.775Z,8.10
2023-04-29T05:03:41.843Z,8.00
2023-04-29T05:06:08.773Z,8.00
2023-04-29T05:08:35.650Z,8.00
2023-04-29T05:11:02.552Z,8.10
2023-04-29T05:13:29.400Z,8.10
2023-04-29T05:15:56.239Z,8.10
2023-04-29T05:18:23.150Z,8.00
2023-04-29T05:20:49.973Z,8.10
2023-04-29T05:23:16.819Z,8.10
2023-04-29T05:25:43.687Z,8.10
2023-04-29T05:28:10.574Z,8.10
2023-04-29T05:30:37.733Z,8.20
2023-04-29T05:33:04.741Z,8.20
2023-04-29T05:35:31.623Z,8.20
2023-04-29T05:37:58.494Z,8.30
2023-04-29T05:40:25.396Z,8.20
2023-04-29T05:42:52.256Z,8.30
2023-04-29T05:45:19.130Z,8.40
2023-04-29T05:47:46.019Z,8.40
2023-04-29T05:50:12.919Z,8.40
2023-04-29T05:52:39.839Z,8.50
2023-04-29T05:55:06.857Z,8.60
2023-04-29T05:57:33.736Z,8.60
2023-04-29T06:00:00.657Z,8.70
2023-04-29T06:02:28.243Z,8.70
2023-04-29T06:04:55.708Z,8.80
2023-04-29T06:07:22.829Z,8.80
2023-04-29T06:09:50.186Z,8.90
2023-04-29T06:12:17.247Z,8.90
2023-04-29T06:14:44.130Z,9.00
2023-04-29T06:17:11.588Z,9.00
2023-04-29T06:19:38.524Z,9.00
2023-04-29T06:22:05.376Z,9.10
2023-04-29T06:24:32.251Z,9.10
2023-04-29T06:26:59.143Z,9.20
2023-04-29T06:29:26.033Z,9.30
2023-04-29T06:31:52.972Z,9.30
2023-04-29T06:34:19.876Z,9.40
2023-04-29T06:36:46.734Z,9.30
2023-04-29T06:39:13.604Z,9.30
2023-04-29T06:41:40.471Z,9.40
2023-04-29T06:44:07.340Z,9.50
2023-04-29T06:46:34.258Z,9.60
2023-04-29T06:49:01.202Z,9.70
2023-04-29T06:51:28.078Z,9.90
2023-04-29T06:53:55.036Z,10.10
2023-04-29T06:56:21.886Z,10.20
2023-04-29T06:58:48.735Z,10.40
2023-04-29T07:01:24.421Z,10.50
2023-04-29T07:03:51.782Z,10.60
2023-04-29T07:06:18.819Z,10.70
2023-04-29T07:08:45.700Z,10.70
2023-04-29T07:11:12.730Z,10.80
2023-04-29T07:13:39.601Z,10.90
2023-04-29T07:16:16.046Z,11.20
2023-04-29T07:18:45.441Z,11.40
2023-04-29T07:21:12.294Z,11.70
2023-04-29T07:23:39.312Z,11.70
2023-04-29T07:26:10.959Z,11.60
2023-04-29T07:28:37.853Z,11.70
2023-04-29T07:31:04.817Z,11.90
2023-04-29T07:33:31.788Z,11.90
2023-04-29T07:35:58.672Z,12.00
2023-04-29T07:38:25.587Z,11.70
2023-04-29T07:40:52.711Z,12.00
2023-04-29T07:43:19.631Z,12.10
2023-04-29T07:45:46.480Z,12.00
2023-04-29T07:48:13.389Z,12.10
2023-04-29T07:50:40.311Z,12.20
2023-04-29T07:53:07.209Z,12.40
2023-04-29T07:55:34.060Z,12.30
2023-04-29T07:58:00.972Z,12.30
2023-04-29T08:00:27.811Z,12.40
2023-04-29T08:02:55.981Z,12.50
2023-04-29T08:05:24.175Z,12.70
2023-04-29T08:07:51.548Z,12.50
2023-04-29T08:10:19.478Z,12.60
2023-04-29T08:12:46.973Z,12.90
2023-04-29T08:15:13.979Z,12.90
2023-04-29T08:17:41.023Z,12.80
2023-04-29T08:20:08.549Z,12.90
2023-04-29T08:22:35.604Z,13.00
2023-04-29T08:25:04.100Z,13.10
2023-04-29T08:27:31.195Z,13.30
2023-04-29T08:29:58.099Z,13.30
2023-04-29T08:32:25.011Z,13.50
2023-04-29T08:34:52.230Z,13.70
2023-04-29T08:37:19.189Z,13.70
2023-04-29T08:39:46.132Z,14.20
2023-04-29T08:42:13.268Z,14.80
2023-04-29T08:44:43.637Z,16.70
2023-04-29T08:47:10.989Z,18.20
2023-04-29T08:49:38.049Z,18.90
2023-04-29T08:52:05.293Z,19.40
2023-04-29T08:54:32.534Z,19.50
2023-04-29T08:57:00.576Z,20.50
2023-04-29T08:59:29.243Z,20.90
2023-04-29T09:01:57.533Z,21.30
2023-04-29T09:04:27.497Z,21.30
2023-04-29T09:06:58.008Z,21.40
2023-04-29T09:09:28.288Z,21.50
2023-04-29T09:11:55.144Z,21.50
2023-04-29T09:14:23.403Z,21.30
2023-04-29T09:16:50.546Z,21.00
2023-04-29T09:19:33.811Z,21.00
2023-04-29T09:22:02.354Z,20.80
2023-04-29T09:24:30.571Z,20.70
2023-04-29T09:26:58.384Z,20.40
2023-04-29T09:29:25.743Z,20.50
2023-04-29T09:31:52.810Z,20.40
2023-04-29T09:34:35.229Z,20.20
2023-04-29T09:37:02.105Z,19.60
2023-04-29T09:39:39.214Z,19.40
2023-04-29T09:42:06.183Z,19.40
2023-04-29T09:44:35.039Z,19.20
2023-04-29T09:47:06.673Z,19.10
2023-04-29T09:49:39.011Z,19.20
2023-04-29T09:52:11.032Z,18.40
2023-04-29T09:54:39.224Z,18.80
2023-04-29T09:57:07.473Z,18.90
2023-04-29T09:59:36.493Z,19.10
2023-04-29T10:02:13.019Z,19.50
2023-04-29T10:04:41.641Z,19.20
2023-04-29T10:07:09.306Z,19.60
2023-04-29T10:09:40.036Z,19.60
2023-04-29T10:12:07.827Z,20.20
2023-04-29T10:14:43.567Z,19.90
2023-04-29T10:17:27.019Z,19.80
2023-04-29T10:20:03.046Z,19.80
2023-04-29T10:22:37.090Z,19.80
2023-04-29T10:25:07.737Z,19.70
2023-04-29T10:27:35.372Z,20.20
2023-04-29T10:30:03.277Z,20.60
2023-04-29T10:32:39.933Z,20.50
2023-04-29T10:35:18.592Z,20.50
2023-04-29T10:37:46.949Z,21.10
2023-04-29T10:40:36.523Z,21.40
2023-04-29T10:43:03.719Z,21.60
2023-04-29T10:45:32.200Z,21.70
2023-04-29T10:48:04.896Z,21.40
2023-04-29T10:50:49.817Z,22.00
2023-04-29T10:53:19.884Z,22.30
2023-04-29T10:55:54.812Z,22.10
2023-04-29T10:58:45.172Z,22.10
2023-04-29T11:01:17.381Z,21.80
2023-04-29T11:03:47.168Z,22.00
2023-04-29T11:06:15.046Z,22.40
2023-04-29T11:08:41.905Z,22.90
2023-04-29T11:11:09.357Z,22.70
2023-04-29T11:13:46.873Z,23.20
2023-04-29T11:16:13.797Z,23.10
2023-04-29T11:19:05.789Z,23.20
2023-04-29T11:21:37.029Z,23.30
2023-04-29T11:24:05.020Z,22.90
2023-04-29T11:26:35.931Z,22.90
2023-04-29T11:29:02.906Z,22.80
2023-04-29T11:31:33.661Z,23.10
2023-04-29T11:34:00.921Z,23.40
2023-04-29T11:36:27.872Z,23.20
2023-04-29T11:38:54.760Z,23.50
2023-04-29T11:41:21.915Z,23.20
2023-04-29T11:43:56.363Z,23.70
2023-04-29T11:46:23.304Z,23.90
2023-04-29T11:48:50.538Z,23.90
2023-04-29T11:51:18.622Z,23.70
2023-04-29T11:53:45.982Z,23.90
2023-04-29T11:56:13.081Z,23.60
2023-04-29T11:58:42.107Z,23.80
2023-04-29T12:01:09.059Z,23.90
2023-04-29T12:03:36.330Z,24.00
2023-04-29T12:06:03.881Z,23.90
2023-04-29T12:08:31.163Z,24.00
2023-04-29T12:10:59.610Z,24.10
2023-04-29T12:13:29.140Z,24.20
2023-04-29T12:15:57.678Z,23.50
2023-04-29T12:18:24.867Z,23.70
2023-04-29T12:20:52.077Z,23.90
2023-04-29T12:23:21.423Z,23.80
2023-04-29T12:25:59.635Z,24.00
2023-04-29T12:28:27.270Z,23.80
2023-04-29T12:30:54.951Z,23.70
2023-04-29T12:33:26.735Z,24.00
2023-04-29T12:35:56.451Z,24.00
2023-04-29T12:38:27.393Z,23.40
2023-04-29T12:40:59.369Z,23.30
2023-04-29T12:43:30.393Z,23.70
2023-04-29T12:46:05.577Z,23.20
2023-04-29T12:48:34.081Z,22.50
2023-04-29T12:51:02.237Z,22.80
2023-04-29T12:53:32.202Z,22.70
2023-04-29T12:55:59.606Z,22.90
2023-04-29T12:58:29.542Z,23.10
2023-04-29T13:00:57.323Z,22.20
2023-04-29T13:03:24.887Z,22.30
2023-04-29T13:05:52.043Z,22.00
2023-04-29T13:08:19.474Z,22.70
2023-04-29T13:10:46.398Z,21.90
2023-04-29T13:13:13.303Z,21.60
2023-04-29T13:15:40.241Z,22.30
2023-04-29T13:18:07.435Z,22.10
2023-04-29T13:20:41.008Z,21.90
2023-04-29T13:23:09.247Z,21.00
2023-04-29T13:25:36.292Z,20.30
2023-04-29T13:28:03.332Z,19.90
2023-04-29T13:30:30.216Z,19.90
2023-04-29T13:33:03.129Z,20.40
2023-04-29T13:35:36.551Z,20.80
2023-04-29T13:38:03.421Z,21.20
2023-04-29T13:40:31.218Z,20.80
2023-04-29T13:43:06.040Z,21.30
2023-04-29T13:45:39.830Z,21.30
2023-04-29T13:48:26.047Z,21.80
2023-04-29T13:54:04.903Z,22.50
2023-04-29T13:59:31.511Z,22.40
2023-04-29T14:04:00.441Z,22.60
2023-04-29T14:06:27.555Z,23.00
2023-04-29T14:08:54.404Z,22.60
2023-04-29T14:11:21.289Z,22.20
2023-04-29T14:13:48.157Z,21.70
2023-04-29T14:16:15.081Z,21.40
2023-04-29T14:18:41.919Z,21.10
2023-04-29T14:21:08.931Z,20.60
2023-04-29T14:23:35.823Z,20.30
2023-04-29T14:26:22.398Z,19.90
2023-04-29T14:28:49.716Z,20.30
2023-04-29T14:31:16.646Z,20.80
2023-04-29T14:33:43.579Z,20.80
2023-04-29T14:36:10.458Z,20.30
2023-04-29T14:38:37.321Z,20.10
2023-04-29T14:41:04.265Z,19.60
2023-04-29T14:43:31.166Z,19.50
2023-04-29T14:45:58.075Z,19.50
2023-04-29T14:48:24.951Z,18.70
2023-04-29T14:50:51.809Z,18.40
2023-04-29T14:53:18.674Z,18.50
2023-04-29T14:55:45.570Z,18.20
2023-04-29T14:58:12.392Z,17.90
2023-04-29T15:00:39.260Z,17.80
2023-04-29T15:03:06.200Z,17.60
2023-04-29T15:05:33.120Z,17.30
2023-04-29T15:07:59.987Z,17.20
2023-04-29T15:10:27.223Z,17.10
2023-04-29T15:12:54.717Z,16.80
2023-04-29T15:15:22.270Z,16.50
2023-04-29T15:17:49.331Z,16.40
2023-04-29T15:20:16.648Z,15.90
2023-04-29T15:22:43.568Z,15.90
2023-04-29T15:25:10.708Z,15.70
2023-04-29T15:27:38.323Z,15.60
2023-04-29T15:30:06.379Z,15.60
2023-04-29T15:32:33.262Z,15.60
2023-04-29T15:35:04.039Z,15.40
2023-04-29T15:37:31.122Z,15.40
2023-04-29T15:40:01.359Z,15.50
2023-04-29T15:42:28.554Z,15.30
2023-04-29T15:44:55.466Z,15.30
2023-04-29T15:47:22.553Z,15.00
2023-04-29T15:49:49.442Z,15.40
2023-04-29T15:52:16.345Z,15.60
2023-04-29T15:54:43.198Z,15.40
2023-04-29T15:57:10.164Z,15.40
2023-04-29T15:59:37.005Z,15.30
2023-04-29T16:02:03.854Z,15.40
2023-04-29T16:04:30.791Z,15.90
2023-04-29T16:06:57.654Z,16.10
2023-04-29T16:09:24.561Z,16.20
2023-04-29T16:11:51.441Z,16.20
2023-04-29T16:14:18.343Z,16.20
2023-04-29T16:16:45.252Z,16.10
2023-04-29T16:19:12.168Z,16.40
2023-04-29T16:21:39.031Z,16.70
2023-04-29T16:24:05.863Z,16.90
2023-04-29T16:26:32.751Z,17.60
2023-04-29T16:28:59.627Z,17.90
2023-04-29T16:31:26.552Z,17.60
2023-04-29T16:33:53.474Z,17.50
2023-04-29T16:36:20.318Z,17.80
2023-04-29T16:38:47.158Z,18.30
2023-04-29T16:41:14.131Z,18.80
2023-04-29T16:43:40.995Z,19.40
2023-04-29T16:46:07.896Z,19.80
2023-04-29T16:48:34.896Z,20.30
2023-04-29T16:51:02.434Z,20.80
2023-04-29T16:53:29.319Z,20.40
2023-04-29T16:55:56.409Z,21.00
2023-04-29T16:58:23.383Z,21.40
2023-04-29T17:00:50.453Z,21.60
2023-04-29T17:03:17.345Z,21.50
2023-04-29T17:05:44.373Z,20.20
2023-04-29T17:08:11.263Z,19.90
2023-04-29T17:10:38.113Z,20.10
2023-04-29T17:13:05.042Z,19.20
2023-04-29T17:15:31.915Z,19.30
2023-04-29T17:17:58.808Z,19.40
2023-04-29T17:20:25.754Z,18.60
2023-04-29T17:22:52.731Z,18.30
2023-04-29T17:25:19.687Z,18.80
2023-04-29T17:27:46.534Z,18.60
2023-04-29T17:30:13.692Z,18.90
2023-04-29T17:32:40.684Z,18.10
2023-04-29T17:35:08.799Z,17.10
2023-04-29T17:37:35.896Z,16.80
2023-04-29T17:40:03.323Z,16.30
2023-04-29T17:42:30.188Z,15.70
2023-04-29T17:44:57.042Z,15.30
2023-04-29T17:47:23.975Z,15.20
2023-04-29T17:49:50.880Z,15.20
2023-04-29T17:52:18.040Z,14.60
2023-04-29T17:54:44.904Z,14.40
2023-04-29T17:57:11.769Z,14.20
2023-04-29T17:59:38.622Z,13.80
2023-04-29T18:02:05.543Z,13.60
2023-04-29T18:04:32.422Z,13.60
2023-04-29T18:06:59.247Z,13.30
2023-04-29T18:09:26.137Z,13.10
2023-04-29T18:11:53.122Z,13.00
2023-04-29T18:14:20.003Z,12.70
2023-04-29T18:16:46.894Z,12.70
2023-04-29T18:19:13.928Z,12.60
2023-04-29T18:21:40.791Z,12.50
2023-04-29T18:24:07.650Z,12.30
2023-04-29T18:26:34.525Z,12.10
2023-04-29T18:29:01.376Z,12.00
2023-04-29T18:31:28.299Z,11.90
2023-04-29T18:33:55.245Z,11.80
2023-04-29T18:36:22.188Z,11.60
2023-04-29T18:38:49.264Z,11.50
2023-04-29T18:41:16.119Z,11.50
2023-04-29T18:43:46.610Z,11.40
2023-04-29T18:46:13.485Z,11.20
2023-04-29T18:48:40.354Z,11.10
2023-04-29T18:51:07.258Z,11.00
2023-04-29T18:53:34.306Z,11.00
2023-04-29T18:56:01.236Z,10.90
2023-04-29T18:58:28.188Z,10.70
2023-04-29T19:00:55.239Z,10.70
2023-04-29T19:03:22.084Z,10.60
2023-04-29T19:05:48.944Z,10.60
2023-04-29T19:08:15.807Z,10.40
2023-04-29T19:10:43.270Z,10.40
2023-04-29T19:13:10.636Z,10.40
2023-04-29T19:15:37.924Z,10.30
2023-04-29T19:18:04.991Z,10.20
2023-04-29T19:20:32.092Z,10.10
2023-04-29T19:22:59.011Z,10.10
2023-04-29T19:25:26.020Z,9.90
2023-04-29T19:27:53.482Z,9.90
2023-04-29T19:30:20.717Z,9.90
2023-04-29T19:32:48.155Z,9.80
2023-04-29T19:35:15.129Z,9.70
2023-04-29T19:37:41.976Z,9.60
2023-04-29T19:40:09.423Z,9.60
2023-04-29T19:42:36.432Z,9.50
2023-04-29T19:45:05.506Z,9.30
2023-04-29T19:47:32.432Z,9.30
2023-04-29T19:49:59.316Z,9.20
2023-04-29T19:52:26.241Z,9.10
2023-04-29T19:54:53.102Z,9.10
2023-04-29T19:57:19.951Z,9.00
2023-04-29T19:59:46.836Z,8.90
2023-04-29T20:02:13.801Z,8.80
2023-04-29T20:04:40.711Z,8.70
2023-04-29T20:07:07.616Z,8.70
2023-04-29T20:09:34.477Z,8.50
2023-04-29T20:12:01.359Z,8.50
2023-04-29T20:14:28.239Z,8.50
2023-04-29T20:16:55.217Z,8.40
2023-04-29T20:19:22.171Z,8.40
2023-04-29T20:21:48.986Z,8.30
2023-04-29T20:24:15.810Z,8.20
2023-04-29T20:26:42.719Z,8.20
2023-04-29T20:29:09.654Z,8.10
2023-04-29T20:31:36.689Z,8.10
2023-04-29T20:34:03.606Z,8.00
2023-04-29T20:36:30.478Z,7.90
2023-04-29T20:38:57.346Z,7.90
2023-04-29T20:41:27.153Z,7.90
2023-04-29T20:43:54.062Z,7.90
2023-04-29T20:46:21.125Z,7.90
2023-04-29T20:48:48.307Z,7.90
2023-04-29T20:51:15.236Z,7.80
2023-04-29T20:53:42.078Z,7.80
2023-04-29T20:56:08.938Z,7.70
2023-04-29T20:58:35.868Z,7.60
2023-04-29T21:01:02.766Z,7.60
2023-04-29T21:03:29.685Z,7.60
2023-04-29T21:05:57.108Z,7.60
2023-04-29T21:08:24.032Z,7.50
2023-04-29T21:10:50.933Z,7.50
2023-04-29T21:13:17.989Z,7.40
2023-04-29T21:15:45.593Z,7.40
2023-04-29T21:18:12.935Z,7.30
2023-04-29T21:20:40.318Z,7.30
2023-04-29T21:23:07.242Z,7.20
2023-04-29T21:25:34.245Z,7.10
2023-04-29T21:28:01.131Z,7.10
2023-04-29T21:30:28.041Z,7.00
2023-04-29T21:32:54.959Z,7.00
2023-04-29T21:35:21.828Z,7.00
2023-04-29T21:37:48.743Z,6.90
2023-04-29T21:40:15.643Z,6.80
2023-04-29T21:42:44.045Z,6.80
2023-04-29T21:45:14.445Z,6.80
2023-04-29T21:47:41.607Z,6.70
2023-04-29T21:50:09.966Z,6.70
2023-04-29T21:52:37.223Z,6.70
2023-04-29T21:55:04.802Z,6.60
2023-04-29T21:57:42.628Z,6.60
2023-04-29T22:00:11.926Z,6.60
2023-04-29T22:02:38.910Z,6.60
2023-04-29T22:05:06.078Z,6.50
2023-04-29T22:07:32.968Z,6.50
2023-04-29T22:09:59.809Z,6.50
2023-04-29T22:12:26.956Z,6.40
2023-04-29T22:14:53.842Z,6.40
2023-04-29T22:17:20.782Z,6.30
2023-04-29T22:19:47.807Z,6.30
2023-04-29T22:22:14.673Z,6.20
2023-04-29T22:24:41.539Z,6.10
2023-04-29T22:27:08.476Z,6.10
2023-04-29T22:29:35.359Z,6.00
2023-04-29T22:32:02.259Z,5.90
2023-04-29T22:34:29.098Z,5.90
2023-04-29T22:36:55.982Z,5.80
2023-04-29T22:39:22.833Z,5.80
2023-04-29T22:41:49.671Z,5.70
2023-04-29T22:44:16.719Z,5.80
2023-04-29T22:46:43.535Z,5.70
2023-04-29T22:49:11.054Z,5.70
2023-04-29T22:51:38.093Z,5.70
2023-04-29T22:54:04.995Z,5.60
2023-04-29T22:56:31.851Z,5.60
2023-04-29T22:58:59.027Z,5.50
2023-04-29T23:01:25.918Z,5.50
2023-04-29T23:03:52.765Z,5.40
2023-04-29T23:06:19.801Z,5.40
2023-04-29T23:08:46.839Z,5.40
2023-04-29T23:11:13.672Z,5.40
2023-04-29T23:13:40.564Z,5.30
2023-04-29T23:16:10.626Z,5.20
2023-04-29T23:18:37.850Z,5.30
2023-04-29T23:21:04.953Z,5.20
2023-04-29T23:23:31.940Z,5.00
2023-04-29T23:25:58.844Z,4.90
2023-04-29T23:28:25.781Z,4.90
2023-04-29T23:30:52.715Z,4.90
2023-04-29T23:33:19.599Z,4.70
2023-04-29T23:35:53.123Z,4.80
2023-04-29T23:38:20.060Z,4.70
2023-04-29T23:40:47.301Z,4.60
2023-04-29T23:43:14.387Z,4.60
2023-04-29T23:45:43.448Z,4.60
2023-04-29T23:48:10.329Z,4.60
2023-04-29T23:50:37.200Z,4.50
2023-04-29T23:53:04.274Z,4.60
2023-04-29T23:55:31.196Z,4.50
2023-04-29T23:57:58.200Z,4.50
